createdAt,value
2017-08-02T00:00:15.973Z,22.13
2017-08-02T00:02:43.448Z,22.13
2017-08-02T00:05:10.936Z,22.19
2017-08-02T00:07:38.386Z,22.19
2017-08-02T00:10:05.890Z,22.17
2017-08-02T00:12:33.382Z,22.18
2017-08-02T00:15:00.875Z,22.20
2017-08-02T00:17:28.333Z,22.18
2017-08-02T00:19:55.825Z,22.25
2017-08-02T00:22:23.280Z,22.07
2017-08-02T00:24:50.786Z,21.81
2017-08-02T00:27:18.241Z,21.77
2017-08-02T00:29:45.754Z,21.77
2017-08-02T00:32:13.236Z,21.87
2017-08-02T00:34:40.695Z,21.82
2017-08-02T00:37:08.186Z,21.75
2017-08-02T00:39:35.645Z,21.76
2017-08-02T00:42:03.128Z,21.87
2017-08-02T00:44:30.592Z,21.97
2017-08-02T00:46:58.072Z,21.98
2017-08-02T00:49:25.537Z,22.03
2017-08-02T00:51:53.023Z,22.01
2017-08-02T00:54:20.518Z,21.97
2017-08-02T00:56:47.981Z,21.87
2017-08-02T00:59:15.473Z,21.82
2017-08-02T01:01:42.944Z,21.85
2017-08-02T01:04:10.453Z,21.86
2017-08-02T01:06:37.897Z,21.85
2017-08-02T01:09:05.358Z,21.83
2017-08-02T01:11:33.012Z,21.75
2017-08-02T01:14:00.486Z,21.71
2017-08-02T01:16:27.944Z,21.64
2017-08-02T01:18:55.431Z,21.60
2017-08-02T01:21:22.885Z,21.61
2017-08-02T01:23:50.362Z,21.65
2017-08-02T01:26:17.858Z,21.66
2017-08-02T01:28:45.317Z,21.65
2017-08-02T01:31:12.820Z,21.67
2017-08-02T01:33:40.277Z,21.67
2017-08-02T01:36:07.765Z,21.64
2017-08-02T01:38:35.229Z,21.63
2017-08-02T01:41:02.751Z,21.60
2017-08-02T01:43:30.224Z,21.53
2017-08-02T01:45:57.674Z,21.32
2017-08-02T01:48:25.158Z,21.30
2017-08-02T01:50:52.614Z,21.38
2017-08-02T01:53:20.092Z,21.46
2017-08-02T01:55:47.553Z,21.43
2017-08-02T01:58:15.038Z,21.40
2017-08-02T02:00:43.336Z,21.40
2017-08-02T02:03:10.813Z,21.34
2017-08-02T02:05:38.268Z,21.31
2017-08-02T02:08:05.764Z,21.28
2017-08-02T02:10:33.213Z,21.25
2017-08-02T02:13:00.673Z,21.26
2017-08-02T02:15:28.162Z,21.24
2017-08-02T02:17:55.626Z,21.07
2017-08-02T02:20:23.118Z,21.04
2017-08-02T02:22:50.571Z,21.06
2017-08-02T02:25:18.057Z,21.08
2017-08-02T02:27:45.514Z,21.07
2017-08-02T02:30:12.993Z,21.09
2017-08-02T02:32:40.456Z,21.11
2017-08-02T02:35:07.936Z,21.09
2017-08-02T02:37:35.392Z,21.02
2017-08-02T02:40:02.868Z,21.07
2017-08-02T02:42:30.359Z,21.05
2017-08-02T02:44:57.818Z,20.99
2017-08-02T02:47:25.327Z,20.98
2017-08-02T02:49:52.803Z,21.01
2017-08-02T02:52:20.379Z,20.99
2017-08-02T02:54:47.835Z,20.96
2017-08-02T02:57:15.306Z,20.93
2017-08-02T02:59:42.750Z,20.90
2017-08-02T03:02:10.271Z,20.89
2017-08-02T03:04:37.727Z,20.86
2017-08-02T03:07:05.198Z,20.86
2017-08-02T03:09:32.687Z,20.84
2017-08-02T03:12:00.139Z,20.81
2017-08-02T03:14:27.635Z,20.83
2017-08-02T03:16:55.099Z,20.73
2017-08-02T03:19:22.576Z,20.78
2017-08-02T03:21:50.029Z,20.78
2017-08-02T03:24:17.526Z,20.76
2017-08-02T03:26:45.021Z,20.72
2017-08-02T03:29:12.494Z,20.73
2017-08-02T03:31:39.955Z,20.69
2017-08-02T03:34:07.447Z,20.64
2017-08-02T03:36:34.945Z,20.60
2017-08-02T03:39:02.399Z,20.63
2017-08-02T03:41:29.899Z,20.60
2017-08-02T03:43:58.065Z,20.53
2017-08-02T03:46:25.603Z,20.50
2017-08-02T03:48:53.043Z,20.49
2017-08-02T03:51:20.499Z,20.47
2017-08-02T03:53:47.993Z,20.49
2017-08-02T03:56:15.461Z,20.46
2017-08-02T03:58:42.950Z,20.43
2017-08-02T04:01:10.410Z,20.40
2017-08-02T04:03:37.879Z,20.41
2017-08-02T04:06:05.342Z,20.42
2017-08-02T04:08:32.927Z,20.29
2017-08-02T04:11:00.389Z,20.36
2017-08-02T04:13:27.843Z,20.39
2017-08-02T04:15:56.012Z,20.42
2017-08-02T04:18:23.495Z,20.35
2017-08-02T04:20:50.997Z,20.36
2017-08-02T04:23:18.490Z,20.36
2017-08-02T04:25:45.990Z,20.43
2017-08-02T04:28:13.455Z,20.49
2017-08-02T04:30:40.938Z,20.47
2017-08-02T04:33:08.395Z,20.44
2017-08-02T04:35:35.856Z,20.41
2017-08-02T04:38:03.384Z,20.47
2017-08-02T04:40:30.949Z,20.51
2017-08-02T04:42:58.453Z,20.51
2017-08-02T04:45:25.942Z,20.48
2017-08-02T04:47:53.427Z,20.45
2017-08-02T04:50:20.922Z,20.58
2017-08-02T04:52:48.442Z,20.55
2017-08-02T04:55:15.898Z,20.61
2017-08-02T04:57:43.546Z,20.63
2017-08-02T05:00:11.010Z,20.67
2017-08-02T05:02:38.467Z,20.69
2017-08-02T05:05:05.947Z,20.69
2017-08-02T05:07:33.415Z,20.71
2017-08-02T05:10:00.910Z,20.73
2017-08-02T05:12:28.389Z,20.75
2017-08-02T05:14:55.876Z,20.71
2017-08-02T05:17:23.335Z,20.75
2017-08-02T05:19:50.794Z,20.70
2017-08-02T05:22:18.274Z,20.73
2017-08-02T05:24:45.748Z,20.88
2017-08-02T05:27:13.230Z,20.94
2017-08-02T05:29:40.717Z,21.03
2017-08-02T05:32:08.199Z,21.06
2017-08-02T05:34:36.356Z,21.16
2017-08-02T05:37:03.872Z,21.24
2017-08-02T05:39:31.343Z,21.27
2017-08-02T05:41:58.827Z,21.34
2017-08-02T05:44:26.285Z,21.42
2017-08-02T05:46:53.766Z,21.47
2017-08-02T05:49:21.266Z,21.58
2017-08-02T05:51:48.746Z,21.73
2017-08-02T05:54:16.236Z,21.73
2017-08-02T05:56:43.688Z,21.76
2017-08-02T05:59:11.189Z,21.79
2017-08-02T06:01:38.660Z,21.84
2017-08-02T06:04:06.157Z,21.88
2017-08-02T06:06:33.618Z,21.92
2017-08-02T06:09:01.138Z,21.86
2017-08-02T06:11:28.596Z,21.85
2017-08-02T06:13:56.104Z,21.82
2017-08-02T06:16:23.597Z,21.89
2017-08-02T06:18:51.061Z,22.04
2017-08-02T06:21:18.564Z,22.17
2017-08-02T06:23:46.025Z,22.28
2017-08-02T06:26:13.562Z,22.23
2017-08-02T06:28:41.032Z,22.26
2017-08-02T06:31:08.554Z,22.31
2017-08-02T06:33:36.023Z,22.45
2017-08-02T06:36:03.506Z,22.55
2017-08-02T06:38:30.961Z,22.52
2017-08-02T06:40:58.700Z,22.64
2017-08-02T06:43:26.209Z,22.74
2017-08-02T06:45:53.723Z,22.83
2017-08-02T06:48:21.246Z,22.89
2017-08-02T06:50:48.762Z,23.02
2017-08-02T06:53:16.290Z,23.10
2017-08-02T06:55:43.928Z,23.16
2017-08-02T06:58:11.398Z,23.19
2017-08-02T07:00:38.950Z,23.15
2017-08-02T07:03:06.488Z,23.18
2017-08-02T07:05:34.011Z,23.22
2017-08-02T07:08:01.614Z,23.27
2017-08-02T07:10:29.068Z,23.39
2017-08-02T07:12:56.691Z,23.49
2017-08-02T07:15:24.188Z,23.65
2017-08-02T07:17:51.641Z,23.62
2017-08-02T07:20:19.231Z,23.78
2017-08-02T07:22:46.718Z,23.86
2017-08-02T07:25:14.268Z,23.96
2017-08-02T07:27:41.737Z,23.93
2017-08-02T07:30:09.244Z,24.04
2017-08-02T07:32:37.726Z,24.15
2017-08-02T07:35:05.304Z,24.10
2017-08-02T07:37:32.798Z,24.21
2017-08-02T07:40:00.302Z,24.22
2017-08-02T07:42:27.818Z,24.31
2017-08-02T07:44:55.338Z,24.37
2017-08-02T07:47:23.068Z,24.20
2017-08-02T07:49:50.565Z,24.35
2017-08-02T07:52:18.070Z,24.52
2017-08-02T07:54:45.528Z,24.66
2017-08-02T07:57:13.045Z,24.70
2017-08-02T07:59:40.769Z,24.81
2017-08-02T08:02:09.966Z,24.91
2017-08-02T08:04:37.458Z,25.01
2017-08-02T08:07:05.900Z,24.99
2017-08-02T08:09:33.390Z,25.03
2017-08-02T08:12:00.850Z,25.12
2017-08-02T08:14:28.368Z,25.20
2017-08-02T08:16:55.874Z,25.30
2017-08-02T08:19:23.415Z,25.37
2017-08-02T08:21:50.904Z,25.36
2017-08-02T08:24:18.382Z,25.47
2017-08-02T08:26:45.869Z,25.45
2017-08-02T08:29:13.366Z,25.65
2017-08-02T08:31:40.850Z,25.74
2017-08-02T08:34:08.328Z,25.93
2017-08-02T08:36:35.834Z,26.10
2017-08-02T08:39:03.348Z,26.03
2017-08-02T08:41:31.681Z,26.06
2017-08-02T08:43:59.211Z,26.17
2017-08-02T08:46:26.749Z,26.22
2017-08-02T08:48:54.255Z,26.23
2017-08-02T08:51:21.713Z,26.42
2017-08-02T08:53:49.216Z,26.47
2017-08-02T08:56:16.809Z,26.55
2017-08-02T08:58:44.427Z,26.64
2017-08-02T09:01:12.243Z,26.67
2017-08-02T09:03:39.730Z,26.72
2017-08-02T09:06:07.193Z,26.73
2017-08-02T09:08:34.717Z,26.66
2017-08-02T09:11:03.236Z,26.61
2017-08-02T09:13:30.733Z,26.60
2017-08-02T09:15:58.214Z,26.67
2017-08-02T09:18:25.737Z,26.87
2017-08-02T09:20:53.221Z,26.85
2017-08-02T09:23:20.703Z,26.79
2017-08-02T09:25:48.203Z,26.64
2017-08-02T09:28:15.796Z,26.64
2017-08-02T09:30:43.334Z,26.97
2017-08-02T09:33:11.446Z,27.23
2017-08-02T09:35:38.981Z,27.42
2017-08-02T09:38:07.158Z,27.63
2017-08-02T09:40:34.684Z,27.74
2017-08-02T09:43:02.255Z,27.64
2017-08-02T09:45:30.532Z,27.52
2017-08-02T09:47:58.036Z,27.46
2017-08-02T09:50:25.490Z,27.54
2017-08-02T09:52:52.992Z,27.81
2017-08-02T09:55:20.449Z,27.99
2017-08-02T09:57:48.413Z,27.92
2017-08-02T10:00:15.945Z,27.75
2017-08-02T10:02:43.471Z,27.69
2017-08-02T10:05:11.768Z,27.77
2017-08-02T10:07:39.863Z,27.98
2017-08-02T10:10:07.338Z,27.93
2017-08-02T10:12:34.858Z,28.09
2017-08-02T10:15:02.670Z,28.13
2017-08-02T10:17:30.125Z,28.12
2017-08-02T10:19:57.638Z,28.22
2017-08-02T10:22:25.159Z,28.32
2017-08-02T10:24:52.728Z,28.61
2017-08-02T10:27:20.976Z,28.54
2017-08-02T10:29:48.596Z,28.55
2017-08-02T10:32:17.205Z,28.73
2017-08-02T10:34:44.687Z,28.66
2017-08-02T10:37:12.166Z,28.89
2017-08-02T10:39:39.982Z,29.00
2017-08-02T10:42:09.017Z,29.06
2017-08-02T10:44:36.842Z,29.25
2017-08-02T10:47:04.359Z,29.39
2017-08-02T10:49:31.856Z,29.46
2017-08-02T10:51:59.680Z,29.63
2017-08-02T10:54:28.273Z,29.48
2017-08-02T10:56:55.825Z,29.49
2017-08-02T10:59:23.405Z,29.26
2017-08-02T11:01:50.911Z,29.24
2017-08-02T11:04:18.581Z,29.55
2017-08-02T11:06:47.041Z,29.80
2017-08-02T11:09:14.563Z,29.73
2017-08-02T11:11:42.148Z,29.79
2017-08-02T11:14:09.717Z,29.63
2017-08-02T11:16:37.246Z,29.42
2017-08-02T11:19:04.863Z,29.58
2017-08-02T11:21:35.497Z,29.77
2017-08-02T11:24:02.990Z,29.86
2017-08-02T11:26:30.476Z,29.81
2017-08-02T11:28:58.077Z,29.94
2017-08-02T11:31:25.533Z,29.76
2017-08-02T11:33:53.024Z,29.75
2017-08-02T11:36:20.545Z,29.86
2017-08-02T11:38:48.000Z,29.97
2017-08-02T11:41:15.499Z,29.79
2017-08-02T11:43:43.078Z,29.83
2017-08-02T11:46:10.542Z,29.98
2017-08-02T11:48:38.046Z,29.92
2017-08-02T11:51:05.527Z,29.91
2017-08-02T11:53:33.616Z,29.95
2017-08-02T11:56:01.472Z,29.99
2017-08-02T11:58:28.958Z,30.13
2017-08-02T12:00:56.458Z,30.12
2017-08-02T12:03:23.966Z,30.16
2017-08-02T12:05:51.450Z,29.95
2017-08-02T12:08:18.925Z,30.05
2017-08-02T12:10:46.433Z,30.13
2017-08-02T12:13:13.927Z,29.92
2017-08-02T12:15:41.415Z,30.06
2017-08-02T12:18:08.894Z,30.05
2017-08-02T12:20:36.388Z,30.11
2017-08-02T12:23:03.849Z,30.26
2017-08-02T12:25:31.321Z,30.42
2017-08-02T12:27:58.819Z,30.52
2017-08-02T12:30:26.271Z,30.52
2017-08-02T12:32:53.759Z,30.56
2017-08-02T12:35:21.234Z,30.76
2017-08-02T12:37:48.741Z,30.84
2017-08-02T12:40:16.820Z,30.78
2017-08-02T12:42:44.332Z,30.65
2017-08-02T12:45:11.790Z,30.87
2017-08-02T12:47:39.266Z,31.04
2017-08-02T12:50:06.765Z,31.31
2017-08-02T12:52:34.230Z,31.50
2017-08-02T12:55:01.717Z,31.49
2017-08-02T12:57:29.180Z,31.67
2017-08-02T12:59:56.658Z,31.68
2017-08-02T13:02:24.225Z,31.68
2017-08-02T13:04:51.775Z,31.52
2017-08-02T13:07:19.311Z,31.72
2017-08-02T13:09:46.789Z,31.56
2017-08-02T13:12:14.241Z,31.63
2017-08-02T13:14:41.756Z,31.89
2017-08-02T13:17:09.308Z,32.15
2017-08-02T13:19:36.792Z,31.99
2017-08-02T13:22:04.282Z,31.82
2017-08-02T13:24:31.757Z,31.56
2017-08-02T13:26:59.241Z,31.34
2017-08-02T13:29:26.759Z,31.74
2017-08-02T13:31:54.259Z,32.13
2017-08-02T13:34:21.710Z,32.51
2017-08-02T13:36:50.029Z,32.21
2017-08-02T13:39:17.595Z,32.12
2017-08-02T13:41:45.097Z,32.43
2017-08-02T13:44:12.718Z,32.76
2017-08-02T13:46:40.284Z,33.02
2017-08-02T13:49:08.680Z,32.90
2017-08-02T13:51:36.158Z,32.72
2017-08-02T13:54:04.392Z,32.74
2017-08-02T13:56:32.150Z,32.57
2017-08-02T13:58:59.681Z,32.83
2017-08-02T14:01:27.220Z,32.93
2017-08-02T14:03:54.724Z,32.89
2017-08-02T14:06:22.181Z,32.53
2017-08-02T14:08:49.790Z,32.52
2017-08-02T14:11:17.294Z,32.81
2017-08-02T14:13:44.762Z,33.18
2017-08-02T14:16:12.253Z,33.58
2017-08-02T14:18:39.710Z,33.77
2017-08-02T14:21:07.540Z,34.12
2017-08-02T14:23:34.999Z,34.14
2017-08-02T14:26:03.406Z,33.98
2017-08-02T14:28:30.881Z,33.93
2017-08-02T14:30:58.357Z,33.93
2017-08-02T14:33:25.899Z,34.31
2017-08-02T14:35:53.366Z,34.48
2017-08-02T14:38:20.899Z,34.72
2017-08-02T14:40:48.402Z,35.09
2017-08-02T14:43:17.014Z,34.89
2017-08-02T14:45:44.532Z,34.49
2017-08-02T14:48:12.054Z,34.28
2017-08-02T14:50:39.514Z,34.14
2017-08-02T14:53:07.080Z,34.11
2017-08-02T14:55:34.554Z,34.14
2017-08-02T14:58:02.278Z,34.01
2017-08-02T15:00:29.763Z,33.75
2017-08-02T15:02:57.230Z,33.75
2017-08-02T15:05:24.832Z,34.05
2017-08-02T15:07:52.307Z,34.63
2017-08-02T15:10:19.810Z,35.32
2017-08-02T15:12:47.303Z,35.55
2017-08-02T15:15:14.895Z,35.79
2017-08-02T15:17:42.384Z,35.66
2017-08-02T15:20:09.866Z,35.77
2017-08-02T15:22:37.350Z,35.59
2017-08-02T15:25:04.840Z,35.41
2017-08-02T15:27:32.318Z,35.26
2017-08-02T15:29:59.784Z,35.31
2017-08-02T15:32:27.280Z,35.03
2017-08-02T15:34:54.768Z,34.59
2017-08-02T15:37:22.349Z,34.56
2017-08-02T15:39:49.909Z,34.88
2017-08-02T15:42:17.396Z,34.89
2017-08-02T15:44:44.900Z,35.27
2017-08-02T15:47:12.941Z,35.71
2017-08-02T15:49:40.430Z,36.26
2017-08-02T15:52:07.940Z,36.60
2017-08-02T15:54:35.453Z,36.84
2017-08-02T15:57:02.977Z,37.02
2017-08-02T15:59:30.466Z,37.01
2017-08-02T16:01:57.926Z,36.68
2017-08-02T16:04:25.424Z,36.28
2017-08-02T16:06:52.936Z,35.73
2017-08-02T16:09:20.403Z,35.59
2017-08-02T16:11:47.900Z,35.55
2017-08-02T16:14:15.408Z,35.60
2017-08-02T16:16:42.897Z,35.11
2017-08-02T16:19:11.232Z,34.67
2017-08-02T16:21:38.723Z,34.47
2017-08-02T16:24:06.280Z,34.19
2017-08-02T16:26:33.809Z,34.01
2017-08-02T16:29:01.274Z,33.72
2017-08-02T16:31:28.783Z,33.69
2017-08-02T16:33:56.291Z,33.96
2017-08-02T16:36:23.775Z,33.59
2017-08-02T16:38:51.278Z,33.67
2017-08-02T16:41:18.802Z,33.74
2017-08-02T16:43:46.286Z,33.70
2017-08-02T16:46:13.835Z,33.45
2017-08-02T16:48:43.004Z,33.27
2017-08-02T16:51:10.472Z,33.11
2017-08-02T16:53:37.980Z,32.87
2017-08-02T16:56:05.446Z,32.84
2017-08-02T16:58:32.909Z,32.84
2017-08-02T17:01:00.542Z,32.79
2017-08-02T17:03:27.989Z,32.69
2017-08-02T17:05:55.492Z,32.62
2017-08-02T17:08:22.990Z,32.39
2017-08-02T17:10:50.585Z,32.28
2017-08-02T17:13:18.185Z,32.02
2017-08-02T17:15:46.463Z,31.96
2017-08-02T17:18:13.928Z,31.94
2017-08-02T17:20:41.422Z,32.01
2017-08-02T17:23:08.926Z,31.96
2017-08-02T17:25:36.426Z,31.92
2017-08-02T17:28:03.891Z,31.83
2017-08-02T17:30:31.490Z,31.79
2017-08-02T17:32:58.947Z,31.82
2017-08-02T17:35:26.455Z,31.76
2017-08-02T17:37:54.020Z,31.72
2017-08-02T17:40:21.519Z,31.77
2017-08-02T17:42:49.017Z,31.76
2017-08-02T17:45:16.554Z,31.71
2017-08-02T17:47:44.056Z,31.67
2017-08-02T17:50:11.571Z,31.64
2017-08-02T17:52:39.036Z,31.58
2017-08-02T17:55:06.535Z,31.55
2017-08-02T17:57:34.034Z,31.58
2017-08-02T18:00:01.649Z,31.57
2017-08-02T18:02:30.264Z,31.56
2017-08-02T18:04:57.756Z,31.50
2017-08-02T18:07:25.240Z,31.45
2017-08-02T18:09:52.730Z,31.40
2017-08-02T18:12:20.924Z,31.27
2017-08-02T18:14:52.961Z,31.12
2017-08-02T18:17:20.471Z,31.08
2017-08-02T18:19:47.940Z,31.07
2017-08-02T18:22:15.458Z,31.05
2017-08-02T18:24:42.932Z,30.98
2017-08-02T18:27:10.405Z,30.90
2017-08-02T18:29:37.927Z,30.84
2017-08-02T18:32:05.422Z,30.76
2017-08-02T18:34:32.894Z,30.76
2017-08-02T18:37:00.385Z,30.73
2017-08-02T18:39:27.895Z,30.62
2017-08-02T18:41:55.409Z,30.57
2017-08-02T18:44:22.892Z,30.41
2017-08-02T18:46:50.459Z,30.49
2017-08-02T18:49:18.280Z,30.37
2017-08-02T18:51:45.740Z,30.28
2017-08-02T18:54:13.239Z,30.10
2017-08-02T18:56:40.736Z,30.01
2017-08-02T18:59:08.193Z,29.77
2017-08-02T19:01:35.710Z,29.52
2017-08-02T19:04:03.947Z,29.31
2017-08-02T19:06:31.410Z,29.28
2017-08-02T19:08:58.882Z,29.36
2017-08-02T19:11:26.420Z,29.46
2017-08-02T19:13:53.887Z,29.50
2017-08-02T19:16:19.815Z,29.46
2017-08-02T19:18:45.711Z,29.45
2017-08-02T19:21:11.673Z,29.37
2017-08-02T19:23:37.602Z,29.21
2017-08-02T19:26:03.522Z,29.13
2017-08-02T19:28:29.559Z,29.07
2017-08-02T19:30:55.433Z,29.11
2017-08-02T19:33:22.174Z,29.13
2017-08-02T19:35:48.046Z,29.18
2017-08-02T19:38:13.932Z,29.05
2017-08-02T19:40:40.051Z,28.68
2017-08-02T19:43:05.940Z,28.43
2017-08-02T19:45:31.826Z,28.18
2017-08-02T19:47:57.706Z,28.06
2017-08-02T19:50:24.432Z,27.97
2017-08-02T19:52:50.330Z,27.85
2017-08-02T19:55:16.197Z,27.79
2017-08-02T19:57:42.050Z,27.73
2017-08-02T20:00:08.275Z,27.58
2017-08-02T20:02:34.185Z,27.59
2017-08-02T20:05:00.097Z,27.46
2017-08-02T20:07:26.001Z,27.32
2017-08-02T20:09:51.910Z,27.36
2017-08-02T20:12:17.811Z,27.23
2017-08-02T20:14:43.742Z,27.24
2017-08-02T20:17:09.647Z,27.24
2017-08-02T20:19:35.583Z,27.03
2017-08-02T20:22:01.445Z,27.01
2017-08-02T20:24:27.374Z,26.88
2017-08-02T20:26:53.255Z,26.87
2017-08-02T20:29:19.245Z,26.87
2017-08-02T20:31:45.223Z,26.74
2017-08-02T20:34:11.114Z,26.71
2017-08-02T20:36:36.998Z,26.64
2017-08-02T20:39:02.946Z,26.49
2017-08-02T20:41:29.132Z,26.51
2017-08-02T20:43:54.984Z,26.55
2017-08-02T20:46:20.816Z,26.52
2017-08-02T20:48:46.738Z,26.51
2017-08-02T20:51:12.635Z,26.52
2017-08-02T20:53:38.532Z,26.54
2017-08-02T20:56:04.377Z,26.48
2017-08-02T20:58:30.245Z,26.43
2017-08-02T21:00:56.160Z,26.32
2017-08-02T21:03:21.993Z,26.25
2017-08-02T21:05:47.881Z,26.07
2017-08-02T21:08:13.737Z,26.09
2017-08-02T21:10:39.696Z,26.08
2017-08-02T21:13:06.507Z,26.07
2017-08-02T21:15:32.365Z,25.97
2017-08-02T21:17:59.259Z,25.70
2017-08-02T21:20:25.141Z,25.90
2017-08-02T21:22:51.042Z,25.95
2017-08-02T21:25:16.933Z,25.92
2017-08-02T21:27:42.810Z,25.86
2017-08-02T21:30:08.671Z,25.75
2017-08-02T21:32:34.899Z,25.78
2017-08-02T21:35:00.771Z,25.68
2017-08-02T21:37:26.681Z,25.63
2017-08-02T21:39:52.626Z,25.61
2017-08-02T21:42:18.515Z,25.53
2017-08-02T21:44:44.433Z,25.50
2017-08-02T21:47:10.374Z,25.45
2017-08-02T21:49:36.255Z,25.30
2017-08-02T21:52:02.175Z,25.27
2017-08-02T21:54:28.145Z,25.34
2017-08-02T21:56:54.007Z,25.33
2017-08-02T21:59:19.924Z,25.33
2017-08-02T22:01:45.774Z,25.31
2017-08-02T22:04:11.650Z,25.30
2017-08-02T22:06:37.550Z,25.16
2017-08-02T22:09:03.463Z,25.05
2017-08-02T22:11:29.405Z,24.98
2017-08-02T22:13:55.692Z,24.93
2017-08-02T22:16:21.580Z,25.10
2017-08-02T22:18:47.434Z,25.02
2017-08-02T22:21:13.379Z,24.98
2017-08-02T22:23:39.230Z,24.94
2017-08-02T22:26:05.096Z,24.95
2017-08-02T22:28:30.950Z,24.88
2017-08-02T22:30:57.020Z,25.00
2017-08-02T22:33:22.899Z,25.07
2017-08-02T22:35:48.734Z,24.99
2017-08-02T22:38:14.606Z,24.85
2017-08-02T22:40:40.446Z,24.83
2017-08-02T22:43:06.327Z,24.82
2017-08-02T22:45:32.210Z,24.83
2017-08-02T22:47:58.053Z,24.85
2017-08-02T22:50:23.937Z,24.87
2017-08-02T22:52:49.798Z,24.96
2017-08-02T22:55:15.721Z,25.06
2017-08-02T22:57:41.562Z,24.95
2017-08-02T23:00:07.459Z,24.90
2017-08-02T23:02:33.305Z,24.81
2017-08-02T23:04:59.197Z,24.74
2017-08-02T23:07:25.236Z,24.73
2017-08-02T23:09:51.163Z,24.80
2017-08-02T23:12:17.066Z,24.79
2017-08-02T23:14:43.002Z,24.80
2017-08-02T23:17:08.913Z,24.69
2017-08-02T23:19:34.847Z,24.69
2017-08-02T23:22:00.715Z,24.67
2017-08-02T23:24:26.587Z,24.67
2017-08-02T23:26:52.485Z,24.65
2017-08-02T23:29:18.389Z,24.66
2017-08-02T23:31:44.331Z,24.65
2017-08-02T23:34:10.233Z,24.63
2017-08-02T23:36:37.533Z,24.64
2017-08-02T23:39:04.425Z,24.59
2017-08-02T23:41:30.278Z,24.65
2017-08-02T23:43:56.165Z,24.56
2017-08-02T23:46:22.008Z,24.64
2017-08-02T23:48:47.860Z,24.59
2017-08-02T23:51:13.745Z,24.55
2017-08-02T23:53:39.601Z,24.56
2017-08-02T23:56:05.476Z,24.49
2017-08-02T23:58:31.385Z,24.48
